This is the latest recevied weather packets stored in our database for station/object SP1BMW-13. If no packets are shown the sender has not sent any weather packets the latest 10 day(s).
| Time | Temp. | Humidity | Pressure | Rain* | Wind** | Luminosity | Snow |
|---|---|---|---|---|---|---|---|
| 1787643636 | 19.44° C | 75% | 1019 hPa | 0 mm | 0.45 m/s, 81° | 186 W/m² | - |
| 1787643577 | 19.44° C | 74% | 1019.2 hPa | 0 mm | 0.45 m/s, 81° | 184 W/m² | - |
| 1787643517 | 19.44° C | 73% | 1019.1 hPa | 0 mm | 0.89 m/s, 124° | 180 W/m² | - |
| 1787643456 | 18.89° C | 74% | 1018.9 hPa | 0 mm | 0.45 m/s, 132° | 176 W/m² | - |
| 1787643397 | 18.89° C | 74% | 1019 hPa | 0 mm | 1.34 m/s, 44° | 173 W/m² | - |
| 1787643337 | 18.89° C | 77% | 1019 hPa | 0 mm | 0 m/s | 169 W/m² | - |
| 1787643278 | 18.89° C | 77% | 1019.1 hPa | 0 mm | 0 m/s | 166 W/m² | - |
| 1787643224 | 18.89° C | 76% | 1019.1 hPa | 0 mm | 0.45 m/s, 60° | 164 W/m² | - |
| 1787643156 | 18.89° C | 75% | 1019.3 hPa | 0 mm | 0.89 m/s, 46° | 160 W/m² | - |
| 1787643096 | 18.89° C | 77% | 1019.2 hPa | 0 mm | 0.45 m/s, 38° | 160 W/m² | - |
| 1787643044 | 18.89° C | 77% | 1019.3 hPa | 0 mm | 0.45 m/s, 115° | 157 W/m² | - |
| 1787642977 | 18.89° C | 78% | 1019.3 hPa | 0 mm | 0.45 m/s, 104° | 152 W/m² | - |
| 1787642916 | 18.33° C | 79% | 1019.2 hPa | 0 mm | 0.45 m/s, 40° | 149 W/m² | - |
| 1787642858 | 18.33° C | 79% | 1019.1 hPa | 0 mm | 0.45 m/s, 47° | 147 W/m² | - |
| 1787642797 | 18.33° C | 81% | 1019 hPa | 0 mm | 0 m/s | 145 W/m² | - |
| 1787642737 | 18.33° C | 81% | 1019.2 hPa | 0 mm | 0.89 m/s, 60° | 142 W/m² | - |
| 1787642677 | 17.78° C | 83% | 1019.2 hPa | 0 mm | 0 m/s | 139 W/m² | - |
| 1787642616 | 17.78° C | 83% | 1019.2 hPa | 0 mm | 0.45 m/s, 331° | 138 W/m² | - |
| 1787642557 | 17.78° C | 86% | 1019.2 hPa | 0 mm | 0.45 m/s, 75° | 136 W/m² | - |
| 1787642497 | 17.22° C | 89% | 1019.1 hPa | 0 mm | 0 m/s | 133 W/m² | - |
| 1787642436 | 17.22° C | 90% | 1019.1 hPa | 0 mm | 0 m/s | 131 W/m² | - |
| 1787642377 | 17.22° C | 91% | 1019.1 hPa | 0 mm | 0 m/s | 130 W/m² | - |
| 1787642317 | 17.22° C | 92% | 1019.1 hPa | 0 mm | 0 m/s | 128 W/m² | - |
| 1787642256 | 17.22° C | 93% | 1019.1 hPa | 0 mm | 0.45 m/s, 286° | 126 W/m² | - |
| 1787642196 | 16.67° C | 94% | 1019 hPa | 0 mm | 0 m/s | 124 W/m² | - |
* Rain latest hour (hover to see other rain measurements)
** Current wind speed in m/s (hover to see current wind gust speed)